Watonga, Oklahoma
Current Conditions -  °F | °C
As of 4:15 AM on Friday 31 Oct 2014 (Local Time) from KJWG Reporting Station
Clear Clear  
Wind Chill: 50°   Ceiling: Unl
Heat Index: 50°   Visibility: 10mi
Dew Point: 39°   Wind: 13mph
Humidity: 66%   Direction: 350°N
Pressure: 30.35"   Gusts: NA
Location:  35.84°N, 98.41°W
Report Text: KJWG 310915Z AUTO 35011KT 10SM CLR 10/04 A3035 RMK AO2 T01000040
Loading
Personal Weather Stations






























Interactive Weather Map
Tropical Storm Tracking
New forecast layout! Learn more

10-Day Weather Forecast

Advertisements
Track Severe Weather on mobile